createdAt,value
2022-11-05T00:01:00.691Z,90.46
2022-11-05T00:03:46.796Z,89.90
2022-11-05T00:06:32.560Z,89.16
2022-11-05T00:09:18.612Z,89.73
2022-11-05T00:12:04.541Z,89.97
2022-11-05T00:14:50.763Z,90.86
2022-11-05T00:17:17.872Z,90.51
2022-11-05T00:19:45.322Z,90.64
2022-11-05T00:22:31.003Z,90.46
2022-11-05T00:25:16.998Z,90.75
2022-11-05T00:27:50.580Z,90.77
2022-11-05T00:30:26.690Z,91.24
2022-11-05T00:32:54.252Z,91.33
2022-11-05T00:35:22.749Z,91.24
2022-11-05T00:37:50.694Z,91.26
2022-11-05T00:40:18.571Z,91.28
2022-11-05T00:43:04.744Z,91.62
2022-11-05T00:45:32.316Z,91.21
2022-11-05T00:48:18.150Z,91.68
2022-11-05T00:50:46.097Z,91.96
2022-11-05T00:53:13.894Z,92.31
2022-11-05T00:55:45.189Z,92.41
2022-11-05T00:58:17.372Z,92.53
2022-11-05T01:00:54.929Z,92.84
2022-11-05T01:03:28.778Z,92.69
2022-11-05T01:05:59.780Z,92.60
2022-11-05T01:08:28.295Z,92.63
2022-11-05T01:10:58.542Z,92.13
2022-11-05T01:13:30.676Z,92.24
2022-11-05T01:16:04.696Z,92.39
2022-11-05T01:18:31.944Z,92.31
2022-11-05T01:20:59.421Z,92.54
2022-11-05T01:23:26.621Z,92.11
2022-11-05T01:25:54.057Z,92.33
2022-11-05T01:28:21.227Z,92.72
2022-11-05T01:30:56.133Z,92.62
2022-11-05T01:33:23.879Z,93.04
2022-11-05T01:35:51.875Z,92.78
2022-11-05T01:38:19.481Z,92.46
2022-11-05T01:40:47.190Z,92.27
2022-11-05T01:43:22.187Z,91.70
2022-11-05T01:45:58.643Z,91.96
2022-11-05T01:48:36.275Z,91.94
2022-11-05T01:51:17.845Z,90.71
2022-11-05T01:54:00.151Z,91.19
2022-11-05T01:56:34.369Z,91.67
2022-11-05T01:59:11.349Z,91.41
2022-11-05T02:01:39.059Z,91.14
2022-11-05T02:04:15.059Z,91.25
2022-11-05T02:06:46.445Z,91.75
2022-11-05T02:09:25.323Z,92.28
2022-11-05T02:11:52.838Z,92.44
2022-11-05T02:14:20.443Z,91.80
2022-11-05T02:17:19.107Z,91.94
2022-11-05T02:20:18.048Z,91.79
2022-11-05T02:23:10.491Z,91.66
2022-11-05T02:26:03.529Z,91.58
2022-11-05T02:29:04.127Z,91.37
2022-11-05T02:31:56.585Z,91.45
2022-11-05T02:34:32.868Z,90.77
2022-11-05T02:37:18.653Z,91.10
2022-11-05T02:39:59.522Z,90.77
2022-11-05T02:42:51.290Z,90.78
2022-11-05T02:45:52.626Z,91.19
2022-11-05T02:48:55.733Z,90.82
2022-11-05T02:51:27.529Z,90.83
2022-11-05T02:54:09.123Z,90.76
2022-11-05T02:56:43.949Z,90.75
2022-11-05T02:59:11.240Z,90.35
2022-11-05T03:01:42.261Z,90.37
2022-11-05T03:04:16.520Z,89.71
2022-11-05T03:07:27.049Z,89.96
2022-11-05T03:10:26.985Z,90.05
2022-11-05T03:13:06.038Z,89.90
2022-11-05T03:16:00.423Z,89.79
2022-11-05T03:18:46.143Z,89.68
2022-11-05T03:21:25.509Z,89.88
2022-11-05T03:24:06.283Z,90.07
2022-11-05T03:26:52.533Z,89.75
2022-11-05T03:29:28.413Z,89.67
2022-11-05T03:31:59.265Z,89.87
2022-11-05T03:34:39.957Z,89.68
2022-11-05T03:37:10.077Z,90.10
2022-11-05T03:39:46.158Z,90.54
2022-11-05T03:42:18.565Z,90.56
2022-11-05T03:44:52.805Z,90.96
2022-11-05T03:47:44.232Z,91.30
2022-11-05T03:50:35.863Z,91.89
2022-11-05T03:53:15.992Z,92.24
2022-11-05T03:56:34.507Z,93.09
2022-11-05T03:59:04.974Z,93.48
2022-11-05T04:01:33.062Z,94.01
2022-11-05T04:04:00.389Z,94.12
2022-11-05T04:06:46.306Z,94.92
2022-11-05T04:09:31.892Z,95.95
2022-11-05T04:12:17.657Z,96.55
2022-11-05T04:14:45.005Z,98.27
2022-11-05T04:17:12.799Z,99.24
2022-11-05T04:20:01.784Z,99.75
2022-11-05T04:22:51.565Z,100.00
2022-11-05T04:25:20.880Z,100.00
2022-11-05T04:27:49.147Z,100.00
2022-11-05T04:30:18.983Z,100.00
2022-11-05T04:33:03.414Z,100.00
2022-11-05T04:35:38.115Z,100.00
2022-11-05T04:38:08.961Z,100.00
2022-11-05T04:40:36.617Z,100.00
2022-11-05T04:43:04.937Z,100.00
2022-11-05T04:45:34.940Z,100.00
2022-11-05T04:48:03.908Z,100.00
2022-11-05T04:50:32.541Z,100.00
2022-11-05T04:53:01.006Z,100.00
2022-11-05T04:55:28.631Z,100.00
2022-11-05T04:57:56.726Z,100.00
2022-11-05T05:00:24.933Z,100.00
2022-11-05T05:02:52.447Z,100.00
2022-11-05T05:05:19.746Z,100.00
2022-11-05T05:07:47.252Z,100.00
2022-11-05T05:10:14.426Z,100.00
2022-11-05T05:12:42.040Z,100.00
2022-11-05T05:15:09.386Z,100.00
2022-11-05T05:17:36.887Z,100.00
2022-11-05T05:20:22.721Z,100.00
2022-11-05T05:22:56.606Z,100.00
2022-11-05T05:25:24.057Z,100.00
2022-11-05T05:27:51.712Z,100.00
2022-11-05T05:30:19.084Z,100.00
2022-11-05T05:32:46.548Z,100.00
2022-11-05T05:35:13.759Z,100.00
2022-11-05T05:37:41.481Z,100.00
2022-11-05T05:40:10.005Z,100.00
2022-11-05T05:42:42.727Z,100.00
2022-11-05T05:45:11.628Z,100.00
2022-11-05T05:47:39.091Z,100.00
2022-11-05T05:50:06.660Z,100.00
2022-11-05T05:52:34.162Z,100.00
2022-11-05T05:55:01.467Z,100.00
2022-11-05T05:57:28.987Z,100.00
2022-11-05T05:59:56.198Z,100.00
2022-11-05T06:02:23.818Z,100.00
2022-11-05T06:04:51.159Z,100.00
2022-11-05T06:07:18.695Z,100.00
2022-11-05T06:09:45.914Z,100.00
2022-11-05T06:12:13.382Z,100.00
2022-11-05T06:14:40.620Z,100.00
2022-11-05T06:17:08.528Z,100.00
2022-11-05T06:19:35.763Z,100.00
2022-11-05T06:22:03.281Z,100.00
2022-11-05T06:24:30.560Z,100.00
2022-11-05T06:26:58.060Z,100.00
2022-11-05T06:29:25.337Z,100.00
2022-11-05T06:31:53.046Z,100.00
2022-11-05T06:34:20.264Z,100.00
2022-11-05T06:36:47.759Z,100.00
2022-11-05T06:39:14.980Z,100.00
2022-11-05T06:42:11.906Z,100.00
2022-11-05T06:44:30.875Z,100.00
2022-11-05T06:46:58.500Z,100.00
2022-11-05T06:49:25.955Z,100.00
2022-11-05T06:51:53.701Z,100.00
2022-11-05T06:54:21.035Z,100.00
2022-11-05T06:56:48.734Z,100.00
2022-11-05T06:59:16.054Z,100.00
2022-11-05T07:01:43.644Z,100.00
2022-11-05T07:04:12.853Z,100.00
2022-11-05T07:06:40.283Z,100.00
2022-11-05T07:09:07.501Z,100.00
2022-11-05T07:11:34.958Z,100.00
2022-11-05T07:14:02.201Z,100.00
2022-11-05T07:16:29.854Z,100.00
2022-11-05T07:18:57.085Z,100.00
2022-11-05T07:21:24.680Z,100.00
2022-11-05T07:23:51.934Z,100.00
2022-11-05T07:26:19.531Z,100.00
2022-11-05T07:28:46.755Z,100.00
2022-11-05T07:31:14.288Z,100.00
2022-11-05T07:33:41.509Z,100.00
2022-11-05T07:36:09.813Z,100.00
2022-11-05T07:38:37.384Z,99.78
2022-11-05T07:41:05.343Z,99.75
2022-11-05T07:43:32.669Z,99.78
2022-11-05T07:46:00.193Z,100.00
2022-11-05T07:48:45.920Z,100.00
2022-11-05T07:51:14.652Z,99.90
2022-11-05T07:53:45.306Z,99.72
2022-11-05T07:56:13.256Z,99.93
2022-11-05T07:58:40.452Z,100.00
2022-11-05T08:01:08.186Z,100.00
2022-11-05T08:03:35.653Z,100.00
2022-11-05T08:06:03.584Z,100.00
2022-11-05T08:08:30.845Z,100.00
2022-11-05T08:11:07.562Z,100.00
2022-11-05T08:13:35.946Z,100.00
2022-11-05T08:16:04.697Z,100.00
2022-11-05T08:18:33.190Z,100.00
2022-11-05T08:21:05.916Z,100.00
2022-11-05T08:23:33.601Z,100.00
2022-11-05T08:26:04.197Z,100.00
2022-11-05T08:28:31.819Z,100.00
2022-11-05T08:30:59.400Z,100.00
2022-11-05T08:33:29.502Z,100.00
2022-11-05T08:36:02.480Z,100.00
2022-11-05T08:38:29.943Z,100.00
2022-11-05T08:40:58.836Z,100.00
2022-11-05T08:43:26.165Z,100.00
2022-11-05T08:45:55.112Z,100.00
2022-11-05T08:48:22.609Z,100.00
2022-11-05T08:50:50.784Z,100.00
2022-11-05T08:53:18.653Z,100.00
2022-11-05T08:55:47.911Z,100.00
2022-11-05T08:58:17.183Z,100.00
2022-11-05T09:00:48.527Z,100.00
2022-11-05T09:03:17.190Z,100.00
2022-11-05T09:05:45.506Z,100.00
2022-11-05T09:08:17.251Z,100.00
2022-11-05T09:10:47.253Z,100.00
2022-11-05T09:13:18.712Z,100.00
2022-11-05T09:15:49.456Z,100.00
2022-11-05T09:18:18.919Z,100.00
2022-11-05T09:20:47.260Z,99.95
2022-11-05T09:23:15.795Z,99.38
2022-11-05T09:25:44.864Z,99.56
2022-11-05T09:28:22.199Z,99.45
2022-11-05T09:30:52.636Z,99.13
2022-11-05T09:33:24.078Z,99.40
2022-11-05T09:35:53.086Z,99.20
2022-11-05T09:38:20.830Z,99.59
2022-11-05T09:41:15.605Z,99.98
2022-11-05T09:44:15.609Z,98.73
2022-11-05T09:46:54.788Z,98.27
2022-11-05T09:49:47.040Z,98.18
2022-11-05T09:52:29.556Z,98.02
2022-11-05T09:54:58.101Z,98.43
2022-11-05T09:57:56.483Z,98.58
2022-11-05T10:00:24.167Z,98.55
2022-11-05T10:02:55.797Z,98.71
2022-11-05T10:05:27.235Z,98.27
2022-11-05T10:08:00.352Z,98.51
2022-11-05T10:10:43.425Z,99.17
2022-11-05T10:13:42.064Z,98.99
2022-11-05T10:16:40.048Z,99.17
2022-11-05T10:19:27.317Z,99.19
2022-11-05T10:22:12.480Z,98.78
2022-11-05T10:24:50.916Z,99.71
2022-11-05T10:27:32.552Z,100.00
2022-11-05T10:30:00.490Z,99.82
2022-11-05T10:32:39.734Z,99.95
2022-11-05T10:35:14.583Z,100.00
2022-11-05T10:37:41.973Z,100.00
2022-11-05T10:41:18.873Z,100.00
2022-11-05T10:44:05.298Z,100.00
2022-11-05T10:46:41.050Z,100.00
2022-11-05T10:49:17.417Z,100.00
2022-11-05T10:51:47.138Z,100.00
2022-11-05T10:54:21.836Z,100.00
2022-11-05T10:56:49.517Z,100.00
2022-11-05T10:59:30.225Z,100.00
2022-11-05T11:02:35.593Z,100.00
2022-11-05T11:05:03.516Z,100.00
2022-11-05T11:07:30.963Z,100.00
2022-11-05T11:09:58.728Z,100.00
2022-11-05T11:12:40.827Z,100.00
2022-11-05T11:15:29.588Z,99.89
2022-11-05T11:17:57.040Z,100.00
2022-11-05T11:20:33.892Z,99.92
2022-11-05T11:23:04.745Z,99.96
2022-11-05T11:26:01.459Z,100.00
2022-11-05T11:28:52.584Z,100.00
2022-11-05T11:31:30.151Z,100.00
2022-11-05T11:34:07.075Z,100.00
2022-11-05T11:36:48.028Z,100.00
2022-11-05T11:39:23.842Z,100.00
2022-11-05T11:41:56.202Z,100.00
2022-11-05T11:44:33.196Z,100.00
2022-11-05T11:47:10.791Z,100.00
2022-11-05T11:49:59.409Z,100.00
2022-11-05T11:52:36.991Z,100.00
2022-11-05T11:55:13.369Z,100.00
2022-11-05T11:58:08.280Z,99.63
2022-11-05T12:00:47.756Z,100.00
2022-11-05T12:03:40.250Z,100.00
2022-11-05T12:06:26.538Z,98.61
2022-11-05T12:09:44.852Z,97.97
2022-11-05T12:12:21.304Z,97.53
2022-11-05T12:15:16.785Z,97.57
2022-11-05T12:18:02.754Z,98.31
2022-11-05T12:21:01.916Z,98.45
2022-11-05T12:23:50.004Z,98.41
2022-11-05T12:26:40.887Z,97.30
2022-11-05T12:29:32.858Z,96.60
2022-11-05T12:32:41.079Z,96.91
2022-11-05T12:35:16.556Z,97.13
2022-11-05T12:38:13.817Z,97.57
2022-11-05T12:40:50.348Z,97.66
2022-11-05T12:44:14.334Z,97.75
2022-11-05T12:47:24.082Z,97.53
2022-11-05T12:50:51.744Z,97.73
2022-11-05T12:53:46.777Z,97.25
2022-11-05T12:56:26.913Z,97.91
2022-11-05T12:59:24.619Z,97.67
2022-11-05T13:02:16.661Z,97.61
2022-11-05T13:05:01.984Z,95.97
2022-11-05T13:07:37.836Z,95.65
2022-11-05T13:10:17.835Z,93.41
2022-11-05T13:12:54.934Z,92.15
2022-11-05T13:15:30.694Z,92.04
2022-11-05T13:18:11.597Z,92.42
2022-11-05T13:20:46.421Z,92.75
2022-11-05T13:23:35.488Z,92.52
2022-11-05T13:26:22.820Z,92.75
2022-11-05T13:29:06.782Z,92.86
2022-11-05T13:31:43.573Z,93.19
2022-11-05T13:34:13.394Z,93.37
2022-11-05T13:37:11.561Z,93.32
2022-11-05T13:40:08.383Z,93.43
2022-11-05T13:43:12.780Z,93.35
2022-11-05T13:46:14.196Z,93.49
2022-11-05T13:49:27.935Z,93.67
2022-11-05T13:52:13.615Z,93.69
2022-11-05T13:55:25.097Z,94.74
2022-11-05T13:58:25.882Z,94.54
2022-11-05T14:01:40.023Z,95.04
2022-11-05T14:04:15.652Z,94.58
2022-11-05T14:06:43.331Z,94.52
2022-11-05T14:09:18.830Z,94.24
2022-11-05T14:11:58.167Z,93.70
2022-11-05T14:14:35.111Z,93.90
2022-11-05T14:17:08.591Z,93.60
2022-11-05T14:19:49.571Z,93.16
2022-11-05T14:22:39.025Z,92.68
2022-11-05T14:25:26.600Z,93.38
2022-11-05T14:27:54.524Z,93.37
2022-11-05T14:30:42.048Z,93.08
2022-11-05T14:33:31.180Z,93.28
2022-11-05T14:36:30.392Z,93.34
2022-11-05T14:39:32.557Z,93.75
2022-11-05T14:42:14.752Z,93.84
2022-11-05T14:45:01.677Z,93.95
2022-11-05T14:47:42.221Z,93.36
2022-11-05T14:50:19.716Z,93.56
2022-11-05T14:52:57.189Z,93.46
2022-11-05T14:55:35.034Z,93.41
2022-11-05T14:58:24.903Z,93.23
2022-11-05T15:00:53.706Z,93.20
2022-11-05T15:03:46.471Z,92.94
2022-11-05T15:06:31.265Z,92.63
2022-11-05T15:09:13.525Z,92.64
2022-11-05T15:11:56.522Z,92.73
2022-11-05T15:14:34.956Z,92.80
2022-11-05T15:17:40.286Z,92.71
2022-11-05T15:20:15.473Z,92.79
2022-11-05T15:22:49.130Z,92.44
2022-11-05T15:25:53.261Z,92.41
2022-11-05T15:28:41.078Z,92.48
2022-11-05T15:31:14.331Z,92.00
2022-11-05T15:33:44.665Z,92.06
2022-11-05T15:36:28.233Z,92.83
2022-11-05T15:39:23.321Z,93.07
2022-11-05T15:41:45.265Z,92.47
2022-11-05T15:44:29.887Z,92.03
2022-11-05T15:47:12.332Z,91.89
2022-11-05T15:50:02.000Z,91.62
2022-11-05T15:52:37.210Z,91.25
2022-11-05T15:55:24.501Z,91.10
2022-11-05T15:57:58.695Z,91.11
2022-11-05T16:00:31.843Z,91.15
2022-11-05T16:03:06.356Z,90.89
2022-11-05T16:05:42.926Z,90.62
2022-11-05T16:08:20.820Z,90.34
2022-11-05T16:10:53.809Z,90.54
2022-11-05T16:13:22.120Z,90.58
2022-11-05T16:16:00.009Z,90.63
2022-11-05T16:18:39.952Z,90.93
2022-11-05T16:21:10.477Z,91.00
2022-11-05T16:23:49.977Z,90.88
2022-11-05T16:29:41.205Z,91.53
2022-11-05T16:32:30.595Z,91.32
2022-11-05T16:35:07.512Z,91.85
2022-11-05T16:37:46.424Z,92.29
2022-11-05T16:40:25.832Z,91.91
2022-11-05T16:42:54.846Z,92.46
2022-11-05T16:45:25.393Z,92.24
2022-11-05T16:47:53.083Z,92.60
2022-11-05T16:50:31.193Z,92.51
2022-11-05T16:52:58.729Z,92.43
2022-11-05T16:55:26.244Z,92.92
2022-11-05T16:57:55.867Z,92.78
2022-11-05T17:00:25.086Z,93.30
2022-11-05T17:02:53.216Z,93.56
2022-11-05T17:05:30.959Z,93.64
2022-11-05T17:07:58.715Z,93.63
2022-11-05T17:10:26.713Z,93.58
2022-11-05T17:12:54.688Z,93.86
2022-11-05T17:15:36.820Z,93.80
2022-11-05T17:18:05.914Z,93.87
2022-11-05T17:20:41.707Z,93.74
2022-11-05T17:23:15.597Z,93.51
2022-11-05T17:25:48.306Z,93.49
2022-11-05T17:28:17.223Z,94.09
2022-11-05T17:30:52.161Z,94.23
2022-11-05T17:33:22.852Z,94.12
2022-11-05T17:35:51.458Z,93.75
2022-11-05T17:38:20.324Z,93.73
2022-11-05T17:40:48.003Z,93.82
2022-11-05T17:43:16.161Z,93.66
2022-11-05T17:45:47.640Z,93.65
2022-11-05T17:48:16.120Z,93.76
2022-11-05T17:50:47.246Z,93.39
2022-11-05T17:53:18.316Z,93.55
2022-11-05T17:55:47.450Z,93.59
2022-11-05T17:58:15.694Z,93.51
2022-11-05T18:00:44.485Z,93.67
2022-11-05T18:03:13.081Z,93.90
2022-11-05T18:05:42.177Z,93.77
2022-11-05T18:08:10.404Z,93.96
2022-11-05T18:10:39.832Z,93.58
2022-11-05T18:13:07.750Z,93.69
2022-11-05T18:15:36.428Z,93.71
2022-11-05T18:18:04.099Z,93.61
2022-11-05T18:20:31.532Z,93.62
2022-11-05T18:22:59.123Z,92.99
2022-11-05T18:25:26.473Z,92.86
2022-11-05T18:27:53.969Z,92.88
2022-11-05T18:30:21.167Z,92.65
2022-11-05T18:32:48.678Z,92.68
2022-11-05T18:35:15.847Z,92.35
2022-11-05T18:37:43.476Z,92.34
2022-11-05T18:40:12.051Z,92.18
2022-11-05T18:42:39.955Z,91.93
2022-11-05T18:45:09.102Z,91.76
2022-11-05T18:47:36.853Z,91.72
2022-11-05T18:50:06.487Z,91.64
2022-11-05T18:52:34.166Z,91.83
2022-11-05T18:55:01.743Z,91.77
2022-11-05T18:57:29.488Z,91.54
2022-11-05T18:59:56.671Z,91.73
2022-11-05T19:02:24.297Z,91.87
2022-11-05T19:05:14.420Z,91.87
2022-11-05T19:07:40.011Z,91.98
2022-11-05T19:10:08.189Z,92.08
2022-11-05T19:12:35.749Z,92.16
2022-11-05T19:15:03.364Z,92.20
2022-11-05T19:17:33.344Z,92.61
2022-11-05T19:20:01.431Z,92.83
2022-11-05T19:22:29.387Z,93.37
2022-11-05T19:24:56.590Z,93.80
2022-11-05T19:27:24.125Z,94.32
2022-11-05T19:29:51.408Z,94.12
2022-11-05T19:32:19.113Z,94.26
2022-11-05T19:34:47.116Z,94.04
2022-11-05T19:37:14.570Z,93.92
2022-11-05T19:39:41.938Z,93.96
2022-11-05T19:42:09.463Z,94.18
2022-11-05T19:44:36.740Z,94.35
2022-11-05T19:47:04.330Z,94.20
2022-11-05T19:49:31.533Z,94.81
2022-11-05T19:51:58.612Z,95.80
2022-11-05T19:54:26.221Z,95.47
2022-11-05T19:56:53.465Z,94.80
2022-11-05T19:59:20.981Z,94.67
2022-11-05T20:01:48.365Z,94.86
2022-11-05T20:04:16.130Z,94.66
2022-11-05T20:06:43.303Z,94.31
2022-11-05T20:09:22.471Z,94.11
2022-11-05T20:11:54.482Z,94.17
2022-11-05T20:14:24.731Z,94.31
2022-11-05T20:16:53.071Z,94.07
2022-11-05T20:19:22.711Z,93.73
2022-11-05T20:21:50.130Z,93.64
2022-11-05T20:24:24.755Z,93.39
2022-11-05T20:26:54.995Z,93.46
2022-11-05T20:29:26.051Z,93.51
2022-11-05T20:31:57.112Z,93.55
2022-11-05T20:34:24.838Z,93.78
2022-11-05T20:36:52.005Z,93.66
2022-11-05T20:39:21.226Z,93.80
2022-11-05T20:41:48.502Z,93.85
2022-11-05T20:44:16.144Z,94.07
2022-11-05T20:46:43.398Z,93.99
2022-11-05T20:49:11.576Z,93.87
2022-11-05T20:51:38.801Z,93.85
2022-11-05T20:54:06.363Z,93.84
2022-11-05T20:56:35.418Z,93.41
2022-11-05T20:59:03.830Z,93.45
2022-11-05T21:01:33.804Z,93.71
2022-11-05T21:04:03.142Z,93.41
2022-11-05T21:06:30.694Z,93.58
2022-11-05T21:08:58.463Z,93.95
2022-11-05T21:11:25.880Z,93.99
2022-11-05T21:13:53.514Z,93.93
2022-11-05T21:16:21.091Z,93.26
2022-11-05T21:18:49.197Z,93.14
2022-11-05T21:21:21.236Z,93.17
2022-11-05T21:23:48.804Z,93.21
2022-11-05T21:26:17.984Z,93.11
2022-11-05T21:28:45.611Z,93.06
2022-11-05T21:31:13.021Z,93.08
2022-11-05T21:33:40.758Z,93.12
2022-11-05T21:36:12.572Z,92.98
2022-11-05T21:38:41.538Z,92.98
2022-11-05T21:41:11.388Z,92.80
2022-11-05T21:43:41.743Z,92.92
2022-11-05T21:46:12.301Z,92.78
2022-11-05T21:48:40.195Z,92.61
2022-11-05T21:51:25.931Z,92.55
2022-11-05T21:54:11.856Z,92.53
2022-11-05T21:56:57.974Z,92.69
2022-11-05T21:59:44.643Z,92.44
2022-11-05T22:02:14.711Z,92.42
2022-11-05T22:04:46.375Z,92.53
2022-11-05T22:07:17.931Z,92.51
2022-11-05T22:09:45.749Z,92.42
2022-11-05T22:12:13.931Z,92.22
2022-11-05T22:14:41.790Z,92.34
2022-11-05T22:17:10.272Z,92.21
2022-11-05T22:19:37.861Z,92.29
2022-11-05T22:22:07.150Z,92.12
2022-11-05T22:24:36.030Z,92.30
2022-11-05T22:27:08.092Z,92.44
2022-11-05T22:29:36.921Z,93.07
2022-11-05T22:32:05.284Z,92.66
2022-11-05T22:34:33.501Z,93.04
2022-11-05T22:37:19.036Z,92.94
2022-11-05T22:39:46.506Z,93.00
2022-11-05T22:42:13.847Z,92.92
2022-11-05T22:44:41.689Z,93.14
2022-11-05T22:47:09.140Z,93.40
2022-11-05T22:49:36.721Z,93.48
2022-11-05T22:52:04.171Z,93.33
2022-11-05T22:54:36.396Z,93.49
2022-11-05T22:57:06.292Z,93.59
2022-11-05T22:59:34.089Z,93.59
2022-11-05T23:02:06.558Z,93.77
2022-11-05T23:04:37.401Z,94.18
2022-11-05T23:07:27.333Z,94.15
2022-11-05T23:10:14.805Z,94.43
2022-11-05T23:12:44.456Z,94.07
2022-11-05T23:15:31.401Z,94.39
2022-11-05T23:18:17.151Z,94.50
2022-11-05T23:21:03.062Z,94.63
2022-11-05T23:23:48.459Z,94.57
2022-11-05T23:26:34.500Z,94.69
2022-11-05T23:29:01.674Z,94.46
2022-11-05T23:32:01.646Z,94.55
2022-11-05T23:34:29.463Z,94.90
2022-11-05T23:37:16.276Z,94.83
2022-11-05T23:39:43.527Z,94.90
2022-11-05T23:42:30.506Z,94.97
2022-11-05T23:45:16.353Z,94.90
2022-11-05T23:48:03.265Z,95.04
2022-11-05T23:50:35.567Z,95.62
2022-11-05T23:53:09.033Z,95.53
2022-11-05T23:55:36.571Z,95.51
2022-11-05T23:58:04.129Z,95.58
